Wye Mills, Maryland
Current Conditions -  °F | °C
As of 9:55 PM on Sunday 23 Nov 2014 (Local Time) from KESN Reporting Station
Overcast Overcast  
Wind Chill: 56°   Ceiling: 5500
Heat Index: 56°   Visibility: 10mi
Dew Point: 56°   Wind: 9mph
Humidity: 100%   Direction: 150°SSE
Pressure: 30"   Gusts: NA
Location:  38.94°N, 76.08°W
Report Text: KESN 240255Z AUTO 15008KT 10SM SCT028 OVC055 14/14 A3000 RMK AO2 T01350135
Loading
Personal Weather Stations






























Interactive Weather Map New forecast layout! Learn more

10-Day Weather Forecast

Advertisements
Track Severe Weather on mobile